Disclaimer

Please do not use the information listed here in-flight or in-navigation, as they are not provided to us by the airports but are provided by volunteers, so they might be outdated.

Search


Regions


Airport information page

No radio frequency information is available.

Airport informations:
Latitude: 05° 48' 40.97" S
Longitude: 061° 16' 41.95" W
Elevation: 174 feet - 53 meters
Operating hours: From sunrise to sunset (SR-SS)
Operating agency: Civil government, landing fees and diplomatic clearance may be required
Timezone: UTC-4(-3DT)
Fuel: Jet A1, without icing nhibitor.

Runway information:
05/23 - 4215 x 98 feet< - >1285 x 30 meters

Recent METARs:
SBMY 211600Z 24006KT 9999 SCT017 BKN100 31/26 Q1012
SBMY 211600Z 24006KT 9999 SCT017 BKN100 31/26 Q1012
SBMY 211600Z 24006KT 9999 SCT017 BKN100 31/26 Q1012

Airport on the map: